Time;durP1;ratioP1;P1;durP2;ratioP2;P2;SDS_P1;SDS_P2;PMS_P1;PMS_P2;Temp;Humidity;BMP_temperature;BMP_pressure;BME280_temperature;BME280_humidity;BME280_pressure;Samples;Min_cycle;Max_cycle;Signal;HPM_P1;HPM_P2
2021/12/13 00:01:21;;;;;;;39.30;32.10;;;;;;;8.79;100.00;102360.66;5234024;28;20028;-72
2021/12/13 00:04:03;;;;;;;42.17;32.38;;;;;;;8.80;100.00;102365.91;5234434;28;20021;-72
2021/12/13 00:06:40;;;;;;;41.78;30.17;;;;;;;8.77;100.00;102363.22;5234304;28;20025;-72
2021/12/13 00:09:16;;;;;;;38.78;31.85;;;;;;;8.74;100.00;102353.66;5233593;28;20034;-73
2021/12/13 00:11:51;;;;;;;41.88;30.85;;;;;;;8.73;100.00;102357.09;5234757;28;20025;-71
2021/12/13 00:14:33;;;;;;;42.35;32.00;;;;;;;8.75;100.00;102358.00;5234411;28;20021;-72
2021/12/13 00:17:12;;;;;;;41.33;30.15;;;;;;;8.73;100.00;102356.22;5234564;28;20497;-71
2021/12/13 00:19:59;;;;;;;39.70;31.80;;;;;;;8.72;100.00;102364.88;5233884;28;20033;-72
2021/12/13 00:22:41;;;;;;;40.72;30.20;;;;;;;8.70;100.00;102362.22;5234141;28;20030;-72
2021/12/13 00:25:22;;;;;;;37.88;29.92;;;;;;;8.71;100.00;102370.91;5234872;28;20451;-74
2021/12/13 00:27:58;;;;;;;35.67;28.75;;;;;;;8.69;100.00;102370.00;5234198;28;20044;-71
2021/12/13 00:30:35;;;;;;;36.03;28.95;;;;;;;8.68;100.00;102357.88;5234504;28;20040;-71
2021/12/13 00:33:18;;;;;;;35.40;27.33;;;;;;;8.66;100.00;102364.75;5234394;28;20033;-71
2021/12/13 00:36:26;;;;;;;38.67;28.25;;;;;;;8.65;100.00;102361.28;5235026;28;20524;-72
2021/12/13 00:39:05;;;;;;;40.42;26.98;;;;;;;8.63;100.00;102357.78;5238233;28;20362;-72
2021/12/13 00:41:38;;;;;;;35.15;26.20;;;;;;;8.64;100.00;102367.31;5238796;28;20076;-71
2021/12/13 00:44:24;;;;;;;36.40;27.17;;;;;;;8.62;100.00;102374.19;5238502;28;20041;-72
2021/12/13 00:47:03;;;;;;;38.17;28.15;;;;;;;8.63;100.00;102370.78;5226810;28;20030;-72
2021/12/13 00:49:39;;;;;;;35.13;27.35;;;;;;;8.61;100.00;102376.75;5216480;28;20029;-71
2021/12/13 00:52:16;;;;;;;38.97;27.40;;;;;;;8.61;100.00;102376.75;5217777;28;20065;-73
2021/12/13 00:54:48;;;;;;;38.25;27.55;;;;;;;8.61;100.00;102374.16;5217887;28;20033;-72
2021/12/13 00:57:40;;;;;;;39.80;28.87;;;;;;;8.60;100.00;102381.09;5217736;28;20369;-72
2021/12/13 01:00:18;;;;;;;38.28;27.58;;;;;;;8.57;100.00;102381.91;5217834;28;20744;-71
2021/12/13 01:02:59;;;;;;;34.17;27.17;;;;;;;8.57;100.00;102373.22;5217692;28;20056;-72
2021/12/13 01:05:55;;;;;;;42.30;27.42;;;;;;;8.56;100.00;102380.16;5199805;28;20041;-71
2021/12/13 01:08:51;;;;;;;39.17;28.08;;;;;;;8.55;100.00;102386.19;5217543;28;20447;-71
2021/12/13 01:11:49;;;;;;;39.97;27.63;;;;;;;8.53;100.00;102384.41;5216754;28;20033;-72
2021/12/13 01:14:45;;;;;;;37.30;27.27;;;;;;;8.52;100.00;102388.72;5216930;28;20030;-71
2021/12/13 01:18:15;;;;;;;38.42;26.63;;;;;;;8.50;100.00;102385.22;5210841;28;20124;-72
2021/12/13 01:24:10;;;;;;;41.17;27.75;;;;;;;8.46;100.00;102386.00;5217315;28;20038;-73
2021/12/13 01:26:46;;;;;;;42.53;30.23;;;;;;;8.44;100.00;102394.63;5216508;28;20617;-71
2021/12/13 01:29:21;;;;;;;38.15;27.58;;;;;;;8.45;100.00;102394.63;5217141;28;20128;-71
2021/12/13 01:32:00;;;;;;;40.85;29.05;;;;;;;8.43;100.00;102396.31;5216833;28;20121;-71
2021/12/13 01:34:34;;;;;;;43.28;29.48;;;;;;;8.43;100.00;102400.63;5217174;28;20053;-71
2021/12/13 01:37:15;;;;;;;39.97;28.27;;;;;;;8.43;100.00;102403.22;5217072;28;20136;-70
2021/12/13 01:39:53;;;;;;;43.92;29.10;;;;;;;8.42;100.00;102404.94;5217433;28;20032;-71
2021/12/13 01:42:29;;;;;;;42.28;28.20;;;;;;;8.42;100.00;102407.53;5216893;28;20033;-72
2021/12/13 01:45:07;;;;;;;45.50;29.25;;;;;;;8.41;100.00;102408.38;5217304;28;20021;-71
2021/12/13 01:47:45;;;;;;;43.78;30.55;;;;;;;8.40;100.00;102404.00;5215613;28;20030;-71
2021/12/13 01:50:24;;;;;;;42.40;28.90;;;;;;;8.38;100.00;102411.78;5216116;28;20712;-72
2021/12/13 01:52:57;;;;;;;40.97;28.85;;;;;;;8.42;100.00;102411.84;5216483;28;20424;-72
2021/12/13 01:55:34;;;;;;;42.03;29.92;;;;;;;8.39;100.00;102416.13;5216840;28;20485;-71
2021/12/13 01:58:47;;;;;;;40.25;29.92;;;;;;;8.36;100.00;102405.66;5216632;28;20496;-71
2021/12/13 02:01:22;;;;;;;40.72;29.40;;;;;;;8.37;100.00;102412.63;5213653;28;20042;-73
2021/12/13 02:04:01;;;;;;;41.33;29.00;;;;;;;8.36;100.00;102407.41;5215221;28;20045;-72
2021/12/13 02:06:38;;;;;;;47.38;31.55;;;;;;;8.35;100.00;102414.28;5215958;28;20394;-71
2021/12/13 02:09:26;;;;;;;42.30;29.33;;;;;;;8.35;100.00;102422.09;5216406;28;20045;-73
2021/12/13 02:12:00;;;;;;;44.38;30.70;;;;;;;8.35;100.00;102410.81;5215586;28;20041;-72
2021/12/13 02:14:34;;;;;;;48.03;32.22;;;;;;;8.36;100.00;102418.66;5215857;28;20394;-72
2021/12/13 02:17:13;;;;;;;45.75;32.15;;;;;;;8.37;100.00;102416.94;5216578;28;20385;-73
2021/12/13 02:20:05;;;;;;;45.00;31.25;;;;;;;8.34;100.00;102411.66;5216096;28;20378;-73
2021/12/13 02:22:46;;;;;;;45.83;30.45;;;;;;;8.35;100.00;102405.63;5216111;28;20146;-73
2021/12/13 02:25:42;;;;;;;45.92;31.67;;;;;;;8.32;100.00;102393.47;5215490;28;20054;-73
2021/12/13 02:28:17;;;;;;;46.30;31.33;;;;;;;8.35;100.00;102400.44;5215952;28;20118;-73
2021/12/13 02:31:02;;;;;;;45.85;32.13;;;;;;;8.32;100.00;102402.97;5216052;28;20104;-72
2021/12/13 02:33:39;;;;;;;48.53;30.75;;;;;;;8.34;100.00;102399.56;5215883;28;20553;-71
2021/12/13 02:36:15;;;;;;;45.15;30.58;;;;;;;8.32;100.00;102401.25;5216029;28;20423;-71
2021/12/13 02:38:51;;;;;;;43.00;31.58;;;;;;;8.31;100.00;102409.03;5215780;28;20100;-70
2021/12/13 02:41:26;;;;;;;44.08;29.63;;;;;;;8.31;100.00;102409.88;5215584;28;20034;-71
2021/12/13 02:44:06;;;;;;;41.72;30.15;;;;;;;8.27;100.00;102414.97;5215598;28;20548;-70
2021/12/13 02:46:38;;;;;;;42.67;30.92;;;;;;;8.27;100.00;102408.06;5230574;28;20341;-72
2021/12/13 02:49:14;;;;;;;42.05;31.05;;;;;;;8.25;100.00;102412.34;5215645;28;20026;-71
2021/12/13 02:51:57;;;;;;;45.45;31.20;;;;;;;8.26;100.00;102414.09;5215822;28;20037;-72
2021/12/13 02:54:36;;;;;;;46.60;31.60;;;;;;;8.26;100.00;102413.22;5215631;28;20454;-71
2021/12/13 02:57:26;;;;;;;42.67;31.35;;;;;;;8.25;100.00;102414.06;5215730;28;20032;-72
2021/12/13 03:00:07;;;;;;;41.63;30.42;;;;;;;8.25;100.00;102416.69;5215556;28;20045;-71
2021/12/13 03:02:42;;;;;;;44.72;29.98;;;;;;;8.21;100.00;102416.59;5273663;23;20073;-71
2021/12/13 03:05:21;;;;;;;49.03;30.73;;;;;;;8.22;100.00;102412.28;5235899;28;20063;-73
2021/12/13 03:07:56;;;;;;;43.55;30.38;;;;;;;8.21;100.00;102407.91;5235892;28;20029;-71
2021/12/13 03:10:35;;;;;;;43.05;30.10;;;;;;;8.20;100.00;102408.78;5236201;28;20029;-73
2021/12/13 03:13:07;;;;;;;41.50;29.48;;;;;;;8.20;100.00;102411.38;5235835;28;20131;-73
2021/12/13 03:15:43;;;;;;;41.53;29.42;;;;;;;8.19;100.00;102409.59;5235864;28;20079;-72
2021/12/13 03:18:28;;;;;;;42.03;31.20;;;;;;;8.17;100.00;102406.97;5235838;28;20117;-73
2021/12/13 03:21:05;;;;;;;41.92;30.15;;;;;;;8.19;100.00;102412.19;5235236;28;20496;-73
2021/12/13 03:24:17;;;;;;;41.28;31.27;;;;;;;8.16;100.00;102412.13;5235280;28;20037;-73
2021/12/13 03:27:05;;;;;;;43.30;30.73;;;;;;;8.15;100.00;102410.38;5235023;28;20029;-72
2021/12/13 03:30:13;;;;;;;41.17;29.77;;;;;;;8.13;100.00;102414.66;5235199;28;20025;-72
2021/12/13 03:32:52;;;;;;;43.42;28.77;;;;;;;8.12;100.00;102410.31;5235501;28;20512;-73
2021/12/13 03:35:55;;;;;;;46.22;31.48;;;;;;;8.12;100.00;102415.50;5235494;28;20470;-73
2021/12/13 03:38:49;;;;;;;46.42;31.45;;;;;;;8.12;100.00;102415.50;5235331;28;20088;-72
2021/12/13 03:41:23;;;;;;;45.55;30.83;;;;;;;8.12;100.00;102415.50;5235197;28;20485;-72
2021/12/13 03:44:00;;;;;;;46.70;30.63;;;;;;;8.13;100.00;102415.53;5234793;28;20584;-71
2021/12/13 03:46:33;;;;;;;46.10;31.27;;;;;;;8.11;100.00;102411.16;5234955;28;20041;-71
2021/12/13 03:49:08;;;;;;;47.33;31.35;;;;;;;8.13;100.00;102406.84;5234813;28;20137;-71
2021/12/13 03:51:42;;;;;;;42.33;31.10;;;;;;;8.13;100.00;102406.84;5235317;28;20065;-72
2021/12/13 03:54:17;;;;;;;41.78;30.45;;;;;;;8.13;100.00;102409.44;5235433;28;20132;-71
2021/12/13 03:56:50;;;;;;;44.38;30.85;;;;;;;8.11;100.00;102418.94;5235735;28;20025;-72
2021/12/13 03:59:27;;;;;;;41.30;28.30;;;;;;;8.11;100.00;102424.13;5234864;28;20033;-71
2021/12/13 04:02:02;;;;;;;40.17;28.17;;;;;;;8.10;100.00;102415.47;5235003;28;20480;-71
2021/12/13 04:04:41;;;;;;;41.80;29.55;;;;;;;8.10;100.00;102417.16;5234390;28;20091;-72
2021/12/13 04:07:18;;;;;;;40.28;28.92;;;;;;;8.11;100.00;102424.13;5234961;28;20033;-73
2021/12/13 04:09:55;;;;;;;42.03;28.50;;;;;;;8.09;100.00;102413.69;5235064;28;20037;-71
2021/12/13 04:12:40;;;;;;;39.95;28.05;;;;;;;8.10;100.00;102417.16;5233185;28;20397;-72
2021/12/13 04:15:29;;;;;;;40.47;28.77;;;;;;;8.08;100.00;102403.28;5234958;28;20032;-71
2021/12/13 04:18:15;;;;;;;42.17;29.17;;;;;;;8.08;100.00;102418.84;5234810;28;20025;-71
2021/12/13 04:20:46;;;;;;;39.50;27.25;;;;;;;8.08;100.00;102417.13;5234536;28;20028;-71
2021/12/13 04:31:25;;;;;;;40.17;28.08;;;;;;;8.06;100.00;102424.00;5267044;26;20530;-71
2021/12/13 04:34:00;;;;;;;38.60;27.10;;;;;;;8.07;100.00;102424.91;5275453;28;20028;-72
2021/12/13 04:36:38;;;;;;;39.95;28.58;;;;;;;8.10;100.00;102424.97;5275219;28;20054;-71
2021/12/13 04:39:27;;;;;;;42.33;26.75;;;;;;;8.07;100.00;102430.97;5275813;28;20025;-72
2021/12/13 04:42:03;;;;;;;37.10;27.00;;;;;;;8.07;100.00;102419.72;5276089;28;20029;-72
2021/12/13 04:44:36;;;;;;;41.35;27.95;;;;;;;8.07;100.00;102425.78;5276096;28;20051;-71
2021/12/13 04:47:12;;;;;;;40.35;27.60;;;;;;;8.05;100.00;102427.47;5276119;28;20029;-72
2021/12/13 04:49:50;;;;;;;40.10;26.92;;;;;;;8.08;100.00;102424.06;5276064;28;20553;-73
2021/12/13 04:52:22;;;;;;;35.95;25.95;;;;;;;8.07;100.00;102420.59;5275650;28;20386;-72
2021/12/13 04:54:54;;;;;;;36.57;26.37;;;;;;;8.07;100.00;102430.97;5276236;28;20033;-71
2021/12/13 04:57:28;;;;;;;35.42;25.88;;;;;;;8.06;100.00;102424.00;5276375;28;20466;-71
2021/12/13 05:00:07;;;;;;;36.78;24.73;;;;;;;8.06;100.00;102415.34;5275981;28;20040;-72
2021/12/13 05:02:45;;;;;;;33.58;24.60;;;;;;;8.06;100.00;102411.03;5276178;28;20040;-73
2021/12/13 05:05:18;;;;;;;35.75;25.92;;;;;;;8.07;100.00;102414.53;5275235;28;20032;-71
2021/12/13 05:07:51;;;;;;;31.80;24.23;;;;;;;8.07;100.00;102415.41;5276008;28;20041;-72
2021/12/13 05:10:25;;;;;;;32.22;23.23;;;;;;;8.08;100.00;102411.06;5276132;28;20483;-73
2021/12/13 05:13:14;;;;;;;33.13;23.20;;;;;;;8.08;100.00;102419.72;5275964;28;20106;-72
2021/12/13 05:16:01;;;;;;;30.52;22.90;;;;;;;8.10;100.00;102432.75;5275559;28;20491;-72
2021/12/13 05:18:33;;;;;;;35.40;23.48;;;;;;;8.10;100.00;102424.97;5276032;28;20063;-71
2021/12/13 05:21:12;;;;;;;35.97;24.13;;;;;;;8.10;100.00;102427.56;5275496;28;20028;-73
2021/12/13 05:23:52;;;;;;;31.70;22.10;;;;;;;8.09;100.00;102424.09;5277637;28;20052;-72
2021/12/13 05:26:43;;;;;;;34.63;23.00;;;;;;;8.10;100.00;102431.06;5279669;28;20403;-73
2021/12/13 05:29:30;;;;;;;29.90;22.17;;;;;;;8.11;100.00;102429.31;5279480;28;20478;-73
2021/12/13 05:32:15;;;;;;;29.85;22.23;;;;;;;8.06;100.00;102426.63;5279817;28;20075;-73
2021/12/13 05:34:57;;;;;;;31.08;22.98;;;;;;;8.08;100.00;102424.06;5279465;28;20040;-75
2021/12/13 05:37:40;;;;;;;31.80;22.25;;;;;;;8.06;100.00;102436.13;5279163;28;20048;-72
2021/12/13 05:40:25;;;;;;;32.08;22.52;;;;;;;8.05;100.00;102432.66;5279188;28;20039;-72
2021/12/13 05:42:59;;;;;;;30.40;20.77;;;;;;;8.01;100.00;102423.91;5279324;28;20035;-73
2021/12/13 05:45:38;;;;;;;28.98;20.92;;;;;;;8.02;100.00;102428.28;5279039;28;20021;-72
2021/12/13 05:48:24;;;;;;;30.15;21.08;;;;;;;8.03;100.00;102432.63;5279301;28;20048;-73
2021/12/13 05:50:58;;;;;;;30.67;19.90;;;;;;;8.03;100.00;102430.03;5280044;28;20028;-73
2021/12/13 05:53:35;;;;;;;29.27;20.75;;;;;;;8.03;100.00;102437.81;5278329;28;20464;-73
2021/12/13 05:56:11;;;;;;;28.27;21.08;;;;;;;8.04;100.00;102430.91;5279147;28;20210;-73
2021/12/13 05:58:47;;;;;;;28.40;21.23;;;;;;;8.05;100.00;102432.66;5279028;28;20028;-73
2021/12/13 06:01:29;;;;;;;27.88;19.63;;;;;;;8.03;100.00;102435.22;5278437;28;20036;-72
2021/12/13 06:04:06;;;;;;;26.08;18.98;;;;;;;8.02;100.00;102440.38;5278595;28;20495;-71
2021/12/13 06:06:49;;;;;;;27.50;19.70;;;;;;;8.03;100.00;102434.31;5278321;28;20028;-72
2021/12/13 06:09:42;;;;;;;26.42;18.85;;;;;;;8.03;100.00;102440.44;5278735;28;20450;-73
2021/12/13 06:12:45;;;;;;;28.90;19.13;;;;;;;8.02;100.00;102435.19;5279062;28;20036;-71
2021/12/13 06:15:16;;;;;;;23.25;17.73;;;;;;;8.02;100.00;102436.06;5233971;28;20060;-72
2021/12/13 06:18:05;;;;;;;24.83;18.17;;;;;;;8.00;100.00;102429.97;5217892;28;20132;-73
2021/12/13 06:21:09;;;;;;;23.77;17.70;;;;;;;8.02;100.00;102449.03;5234174;28;20033;-73
2021/12/13 06:23:40;;;;;;;;;;;;;;;8.04;100.00;102449.94;5153318;28;20151;-72
2021/12/13 06:26:14;;;;;;;22.85;17.30;;;;;;;8.02;100.00;102443.84;5153059;28;20013;-71
2021/12/13 06:28:53;;;;;;;25.50;17.02;;;;;;;8.02;100.00;102446.44;5153444;29;20046;-74
2021/12/13 06:31:40;;;;;;;25.27;17.92;;;;;;;8.03;100.00;102453.41;5152587;29;20091;-74
2021/12/13 06:34:26;;;;;;;23.73;18.63;;;;;;;8.02;100.00;102454.25;5152746;28;20422;-72
2021/12/13 06:36:57;;;;;;;24.48;18.08;;;;;;;8.00;100.00;102453.34;5152694;28;20027;-74
2021/12/13 06:39:30;;;;;;;23.70;17.40;;;;;;;7.99;100.00;102450.69;5534571;22;20049;-73
2021/12/13 06:42:06;;;;;;;25.92;17.33;;;;;;;7.98;100.00;102457.59;5236452;28;20037;-72
2021/12/13 06:44:43;;;;;;;24.38;16.58;;;;;;;8.00;100.00;102461.13;5236645;28;20121;-71
2021/12/13 06:47:21;;;;;;;23.98;16.52;;;;;;;7.99;100.00;102461.94;5236191;28;20037;-72
2021/12/13 06:49:57;;;;;;;21.00;16.17;;;;;;;7.99;100.00;102459.34;5236348;28;20033;-74
2021/12/13 06:52:32;;;;;;;22.50;17.20;;;;;;;7.97;100.00;102461.03;5250431;28;20084;-73
2021/12/13 06:55:09;;;;;;;24.67;16.83;;;;;;;7.99;100.00;102461.09;5236638;28;20065;-72
2021/12/13 06:57:46;;;;;;;21.65;15.93;;;;;;;7.97;100.00;102461.03;5236761;28;20021;-73
2021/12/13 07:00:21;;;;;;;21.67;16.27;;;;;;;8.00;100.00;102462.81;5236944;28;20502;-71
2021/12/13 07:03:23;;;;;;;22.35;17.40;;;;;;;7.98;100.00;102478.34;5236622;28;20443;-72
2021/12/13 07:05:57;;;;;;;20.58;15.68;;;;;;;7.98;100.00;102477.50;5236209;28;20053;-72
2021/12/13 07:08:35;;;;;;;24.35;16.33;;;;;;;7.97;100.00;102480.91;5236670;28;20033;-75
2021/12/13 07:11:13;;;;;;;22.08;16.67;;;;;;;7.96;100.00;102474.00;5236712;28;20032;-74
2021/12/13 07:13:50;;;;;;;23.63;17.77;;;;;;;7.96;100.00;102484.38;5236230;28;20469;-73
2021/12/13 07:16:32;;;;;;;20.70;16.58;;;;;;;7.98;100.00;102475.75;5235983;28;20025;-75
2021/12/13 07:19:18;;;;;;;21.20;16.17;;;;;;;8.00;100.00;102481.00;5236164;28;20036;-76
2021/12/13 07:21:59;;;;;;;22.67;16.58;;;;;;;7.97;100.00;102481.81;5236104;28;20087;-74
2021/12/13 07:24:42;;;;;;;22.15;17.25;;;;;;;7.95;100.00;102482.59;5236612;28;20032;-73
2021/12/13 07:27:18;;;;;;;24.48;17.08;;;;;;;7.96;100.00;102489.56;5236352;28;20036;-74
2021/12/13 07:30:08;;;;;;;21.67;16.50;;;;;;;7.96;100.00;102489.56;5236257;28;20140;-73
2021/12/13 07:32:45;;;;;;;22.23;16.25;;;;;;;7.96;100.00;102487.84;5236296;28;20025;-72
2021/12/13 07:35:22;;;;;;;23.15;16.80;;;;;;;7.96;100.00;102486.97;5236347;28;20473;-71
2021/12/13 07:37:57;;;;;;;24.10;17.13;;;;;;;7.96;100.00;102498.22;5236038;28;20462;-73
2021/12/13 07:46:12;;;;;;;23.17;16.50;;;;;;;8.01;100.00;102493.16;5575600;22;20413;-73
2021/12/13 07:48:43;;;;;;;21.77;16.88;;;;;;;8.01;100.00;102495.75;5256302;28;20028;-73
2021/12/13 07:51:34;;;;;;;20.67;16.13;;;;;;;8.00;100.00;102499.19;5256051;28;20063;-72
2021/12/13 07:54:18;;;;;;;20.17;15.95;;;;;;;8.02;100.00;102500.13;5255966;28;20028;-73
2021/12/13 07:57:01;;;;;;;23.55;16.25;;;;;;;8.02;100.00;102510.50;5256392;28;20098;-71
2021/12/13 08:02:27;;;;;;;18.50;15.88;;;;;;;8.04;100.00;102514.88;5300408;22;20068;-73
2021/12/13 08:04:58;;;;;;;24.33;17.05;;;;;;;8.08;100.00;102514.97;5235320;28;20082;-72
2021/12/13 08:07:40;;;;;;;24.63;16.27;;;;;;;8.09;100.00;102511.53;5234858;28;20323;-71
2021/12/13 08:10:17;;;;;;;19.95;16.02;;;;;;;8.09;100.00;102502.00;5234842;28;20040;-72
2021/12/13 08:13:03;;;;;;;21.17;16.55;;;;;;;8.17;100.00;102499.63;5235018;28;20104;-73
2021/12/13 08:15:40;;;;;;;20.38;15.05;;;;;;;8.10;100.00;102513.28;5234994;28;20031;-72
2021/12/13 08:18:36;;;;;;;19.20;14.88;;;;;;;8.12;100.00;102512.47;5235255;28;20176;-72
2021/12/13 08:21:24;;;;;;;20.95;16.00;;;;;;;8.14;100.00;102522.91;5235229;28;20476;-72
2021/12/13 08:24:00;;;;;;;21.42;16.25;;;;;;;8.12;100.00;102515.09;5235270;28;20607;-73
2021/12/13 08:26:42;;;;;;;20.67;16.15;;;;;;;8.12;100.00;102509.88;5235350;28;20030;-71
2021/12/13 08:29:21;;;;;;;21.15;15.75;;;;;;;8.13;100.00;102509.06;5235247;28;20073;-72
2021/12/13 08:31:55;;;;;;;19.80;15.95;;;;;;;8.13;100.00;102510.75;5234906;28;20041;-72
2021/12/13 08:34:33;;;;;;;22.90;16.52;;;;;;;8.13;100.00;102515.94;5235067;28;20415;-73
2021/12/13 08:37:33;;;;;;;19.67;15.55;;;;;;;8.15;100.00;102511.69;5234768;28;20084;-73
2021/12/13 08:40:16;;;;;;;17.27;14.65;;;;;;;8.15;100.00;102511.69;5171087;28;20533;-73
2021/12/13 08:42:49;;;;;;;20.80;14.57;;;;;;;8.15;100.00;102512.56;5171136;28;20046;-73
2021/12/13 08:45:27;;;;;;;18.65;14.80;;;;;;;8.15;100.00;102512.56;5170737;28;20035;-73
2021/12/13 08:48:05;;;;;;;17.80;14.52;;;;;;;8.16;100.00;102518.63;5170246;28;20474;-72
2021/12/13 08:50:44;;;;;;;18.50;14.35;;;;;;;8.16;100.00;102509.13;5170510;28;20039;-72
2021/12/13 08:53:26;;;;;;;16.73;14.20;;;;;;;8.18;100.00;102519.56;5170777;28;20054;-70
2021/12/13 08:56:00;;;;;;;19.42;13.93;;;;;;;8.16;100.00;102516.94;5170258;28;20490;-73
2021/12/13 08:58:32;;;;;;;20.50;14.43;;;;;;;8.17;100.00;102518.66;5174033;28;20071;-72
2021/12/13 09:01:13;;;;;;;15.57;13.18;;;;;;;8.19;100.00;102518.72;5174150;28;20451;-72
2021/12/13 09:03:50;;;;;;;16.27;13.13;;;;;;;8.23;100.00;102523.16;5174669;28;20051;-75
2021/12/13 09:06:27;;;;;;;16.85;14.10;;;;;;;8.21;100.00;102520.50;5174287;28;20039;-73
2021/12/13 09:09:14;;;;;;;19.67;13.32;;;;;;;8.23;100.00;102520.56;5174435;28;20035;-73
2021/12/13 09:11:51;;;;;;;15.50;12.10;;;;;;;8.22;100.00;102518.78;5174449;28;20043;-73
2021/12/13 09:14:30;;;;;;;16.90;12.80;;;;;;;8.24;100.00;102531.81;5174467;28;20094;-73
2021/12/13 09:17:22;;;;;;;14.40;12.68;;;;;;;8.27;100.00;102524.97;5207611;28;20540;-73
2021/12/13 09:20:15;;;;;;;17.52;13.40;;;;;;;8.26;100.00;102531.03;5237974;28;20044;-72
2021/12/13 09:22:48;;;;;;;;;;;;;;;8.33;100.00;102529.44;5238562;28;20065;-72
2021/12/13 09:25:45;;;;;;;15.60;12.55;;;;;;;8.27;100.00;102534.50;5252960;28;20028;-73
2021/12/13 09:28:18;;;;;;;18.48;13.30;;;;;;;8.27;100.00;102535.34;5237738;28;20021;-72
2021/12/13 09:30:53;;;;;;;16.35;13.57;;;;;;;8.27;100.00;102537.97;5219696;28;20470;-72
2021/12/13 09:33:47;;;;;;;15.98;12.25;;;;;;;8.27;100.00;102540.56;5237609;28;20567;-71
2021/12/13 09:36:28;;;;;;;13.93;11.70;;;;;;;8.28;100.00;102550.13;5238050;28;20129;-72
2021/12/13 09:39:12;;;;;;;14.23;11.63;;;;;;;8.29;100.00;102556.19;5219233;28;20045;-72
2021/12/13 09:42:07;;;;;;;16.38;12.05;;;;;;;8.29;100.00;102557.09;5237166;28;20044;-72
2021/12/13 09:44:48;;;;;;;13.65;11.05;;;;;;;8.30;100.00;102569.22;5237317;28;20032;-75
2021/12/13 09:47:29;;;;;;;18.58;12.65;;;;;;;8.30;100.00;102570.94;5237665;28;20025;-72
2021/12/13 09:50:14;;;;;;;15.27;11.57;;;;;;;8.34;100.00;102581.47;5237485;28;20392;-71
2021/12/13 09:52:55;;;;;;;14.88;11.98;;;;;;;8.36;100.00;102581.50;5237238;28;20400;-73
2021/12/13 09:55:33;;;;;;;13.43;11.50;;;;;;;8.37;100.00;102591.03;5237090;28;20030;-73
2021/12/13 09:58:10;;;;;;;13.63;11.32;;;;;;;8.36;100.00;102594.50;5237553;28;20031;-72
2021/12/13 10:01:13;;;;;;;13.23;11.15;;;;;;;8.34;100.00;102597.06;5237251;28;20072;-74
2021/12/13 10:03:45;;;;;;;;;;;;;;;8.39;100.00;102598.03;5237815;28;20504;-72
2021/12/13 10:06:26;;;;;;;12.35;10.88;;;;;;;8.37;100.00;102601.44;5237344;28;19936;-72
2021/12/13 10:09:21;;;;;;;13.43;10.15;;;;;;;8.37;100.00;102599.72;5236637;28;20028;-72
2021/12/13 10:12:15;;;;;;;12.00;9.68;;;;;;;8.39;100.00;102594.56;5236602;28;20037;-72
2021/12/13 10:14:54;;;;;;;9.93;8.13;;;;;;;8.35;99.77;102591.00;5510027;22;20076;-72
2021/12/13 10:17:31;;;;;;;10.57;8.65;;;;;;;8.35;99.64;102591.00;5257997;28;20132;-73
2021/12/13 10:20:09;;;;;;;12.02;8.15;;;;;;;8.36;99.41;102582.38;5257894;28;20112;-72
2021/12/13 10:22:43;;;;;;;10.10;8.38;;;;;;;8.35;99.60;102585.78;5257523;28;20036;-72
2021/12/13 10:25:21;;;;;;;11.68;8.63;;;;;;;8.39;99.49;102579.84;5256991;28;20021;-73
2021/12/13 10:27:53;;;;;;;12.32;8.95;;;;;;;8.38;99.29;102585.00;5257690;28;20039;-72
2021/12/13 10:30:52;;;;;;;12.57;8.82;;;;;;;8.42;99.54;102581.66;5257259;28;20021;-73
2021/12/13 10:33:25;;;;;;;11.63;9.75;;;;;;;8.45;99.59;102589.53;5257866;28;20048;-72
2021/12/13 10:36:00;;;;;;;9.77;8.65;;;;;;;8.47;99.59;102581.78;5257800;28;20082;-71
2021/12/13 10:38:43;;;;;;;10.32;8.50;;;;;;;8.46;98.53;102578.31;5257244;28;20036;-72
2021/12/13 10:41:35;;;;;;;;;;;;;;;8.51;98.65;102575.81;5257669;28;20029;-72
2021/12/13 10:44:13;;;;;;;8.25;7.38;;;;;;;8.46;98.40;102572.25;5256469;28;19935;-72
2021/12/13 10:46:47;;;;;;;8.55;6.85;;;;;;;8.44;98.49;102571.34;5256314;28;20032;-72
2021/12/13 10:49:23;;;;;;;10.90;7.30;;;;;;;8.45;97.94;102573.94;5256740;28;20025;-72
2021/12/13 10:52:05;;;;;;;8.45;7.05;;;;;;;8.49;97.67;102572.31;5256880;28;20025;-73
2021/12/13 10:54:41;;;;;;;11.25;8.52;;;;;;;8.47;97.70;102571.38;5256651;28;20111;-74
2021/12/13 10:57:19;;;;;;;11.35;7.75;;;;;;;8.48;98.04;102567.94;5256492;28;20058;-73
2021/12/13 10:59:52;;;;;;;11.68;7.80;;;;;;;8.49;97.29;102569.72;5257039;28;20033;-73
2021/12/13 11:02:29;;;;;;;10.30;7.03;;;;;;;8.51;97.76;102579.28;5257418;28;20036;-76
2021/12/13 11:05:09;;;;;;;8.63;6.47;;;;;;;8.50;97.11;102577.56;5257026;28;20802;-71
2021/12/13 11:07:42;;;;;;;11.05;7.28;;;;;;;8.51;96.85;102573.22;5256931;28;20487;-73
2021/12/13 11:10:17;;;;;;;12.13;7.93;;;;;;;8.50;96.74;102567.16;5256906;28;20116;-72
2021/12/13 11:12:53;;;;;;;13.10;8.00;;;;;;;8.54;96.72;102555.13;5256343;28;20032;-74
2021/12/13 11:15:29;;;;;;;8.65;6.93;;;;;;;8.56;97.03;102556.91;5256099;28;20106;-72
2021/12/13 11:18:04;;;;;;;9.07;6.93;;;;;;;8.55;96.72;102557.75;5256674;28;20123;-72
2021/12/13 11:20:45;;;;;;;10.10;7.38;;;;;;;8.52;96.16;102554.19;5255205;28;20083;-74
2021/12/13 11:23:20;;;;;;;8.77;7.05;;;;;;;8.51;95.98;102555.91;5256166;28;20037;-73
2021/12/13 11:26:00;;;;;;;10.95;7.53;;;;;;;8.54;96.66;102552.50;5256709;28;20044;-73
2021/12/13 11:28:33;;;;;;;8.13;6.22;;;;;;;8.55;96.29;102556.88;5256535;28;20033;-72
2021/12/13 11:31:10;;;;;;;10.63;7.68;;;;;;;8.60;96.38;102557.88;5256783;28;20025;-74
2021/12/13 11:33:42;;;;;;;9.65;7.05;;;;;;;8.62;95.96;102556.16;5256631;28;20063;-72
2021/12/13 11:36:39;;;;;;;7.87;6.63;;;;;;;8.65;95.22;102560.56;5257255;28;20072;-72
2021/12/13 11:39:25;;;;;;;12.75;6.70;;;;;;;8.64;95.21;102553.59;5256851;28;20056;-73
2021/12/13 11:42:38;;;;;;;11.68;7.72;;;;;;;8.68;95.42;102558.91;5260672;23;20460;-72
2021/12/13 11:45:31;;;;;;;10.25;7.10;;;;;;;8.67;94.93;102548.47;5236055;28;20519;-72
2021/12/13 11:48:23;;;;;;;9.05;6.57;;;;;;;8.70;95.12;102553.75;5236042;28;20374;-70
2021/12/13 11:51:16;;;;;;;7.25;5.60;;;;;;;8.71;94.95;102546.00;5235987;28;20570;-71
2021/12/13 11:53:56;;;;;;;;;;;;;;;8.76;94.81;102554.78;5235737;28;20087;-72
2021/12/13 11:57:05;;;;;;;9.27;6.75;;;;;;;8.73;94.64;102553.84;5250896;28;19924;-72
2021/12/13 12:02:20;;;;;;;7.28;5.60;;;;;;;8.68;94.45;102556.31;5317221;23;20064;-72
2021/12/13 12:05:23;;;;;;;8.10;5.97;;;;;;;8.71;94.28;102545.09;5256550;28;20048;-74
2021/12/13 12:08:30;;;;;;;11.70;6.40;;;;;;;8.70;94.99;102549.44;5256283;28;20469;-72
2021/12/13 12:11:13;;;;;;;13.43;6.82;;;;;;;8.66;94.20;102550.22;5256109;28;20064;-73
2021/12/13 12:14:01;;;;;;;9.52;5.97;;;;;;;8.65;94.18;102545.84;5255705;28;20120;-73
2021/12/13 12:16:41;;;;;;;9.18;6.03;;;;;;;8.66;94.20;102533.72;5256187;28;20021;-73
2021/12/13 12:19:36;;;;;;;8.75;6.20;;;;;;;8.74;95.08;102534.78;5256252;28;20220;-73
2021/12/13 12:22:13;;;;;;;10.55;6.32;;;;;;;8.69;94.41;102531.19;5255543;28;20424;-72
2021/12/13 12:24:51;;;;;;;10.38;5.45;;;;;;;8.69;94.06;102536.38;5255719;28;20480;-73
2021/12/13 12:27:30;;;;;;;9.18;6.05;;;;;;;8.69;93.69;102537.25;5255892;28;20051;-74
2021/12/13 12:30:11;;;;;;;13.23;6.45;;;;;;;8.73;93.81;102538.22;5255252;28;20021;-73
2021/12/13 12:32:58;;;;;;;9.20;5.65;;;;;;;8.72;93.78;102539.94;5255183;28;20758;-75
2021/12/13 12:35:36;;;;;;;11.13;5.93;;;;;;;8.69;93.37;102532.06;5255714;28;20028;-73
2021/12/13 12:38:55;;;;;;;7.97;4.93;;;;;;;8.73;93.74;102539.09;5255509;28;20118;-73
2021/12/13 12:42:00;;;;;;;9.95;6.45;;;;;;;8.72;93.53;102539.06;5191230;28;20034;-74